sensor_id;sensor_type;location;lat;lon;timestamp;P1;durP1;ratioP1;P2;durP2;ratioP2
57643;SDS011;43474;46.510;6.686;2022-08-24T00:00:24;4.25;;;2.65;;
57643;SDS011;43474;46.510;6.686;2022-08-24T00:03:02;4.15;;;3.03;;
57643;SDS011;43474;46.510;6.686;2022-08-24T00:05:27;5.50;;;2.83;;
57643;SDS011;43474;46.510;6.686;2022-08-24T00:07:53;3.45;;;2.95;;
57643;SDS011;43474;46.510;6.686;2022-08-24T00:10:19;4.82;;;3.22;;
57643;SDS011;43474;46.510;6.686;2022-08-24T00:12:45;3.72;;;3.30;;
57643;SDS011;43474;46.510;6.686;2022-08-24T00:15:12;6.43;;;3.00;;
57643;SDS011;43474;46.510;6.686;2022-08-24T00:17:39;4.00;;;3.10;;
57643;SDS011;43474;46.510;6.686;2022-08-24T00:20:06;5.20;;;2.95;;
57643;SDS011;43474;46.510;6.686;2022-08-24T00:22:33;4.22;;;3.40;;
57643;SDS011;43474;46.510;6.686;2022-08-24T00:24:59;4.07;;;3.28;;
57643;SDS011;43474;46.510;6.686;2022-08-24T00:27:24;4.88;;;3.20;;
57643;SDS011;43474;46.510;6.686;2022-08-24T00:29:50;5.55;;;3.22;;
57643;SDS011;43474;46.510;6.686;2022-08-24T00:32:16;4.25;;;3.03;;
57643;SDS011;43474;46.510;6.686;2022-08-24T00:34:41;3.53;;;3.22;;
57643;SDS011;43474;46.510;6.686;2022-08-24T00:37:07;4.43;;;3.28;;
57643;SDS011;43474;46.510;6.686;2022-08-24T00:39:32;4.22;;;3.00;;
57643;SDS011;43474;46.510;6.686;2022-08-24T00:41:58;6.97;;;3.30;;
57643;SDS011;43474;46.510;6.686;2022-08-24T00:44:24;5.25;;;2.95;;
57643;SDS011;43474;46.510;6.686;2022-08-24T00:49:26;5.63;;;3.70;;
57643;SDS011;43474;46.510;6.686;2022-08-24T00:52:11;4.50;;;3.30;;
57643;SDS011;43474;46.510;6.686;2022-08-24T00:54:43;4.60;;;3.22;;
57643;SDS011;43474;46.510;6.686;2022-08-24T00:57:13;5.00;;;3.23;;
57643;SDS011;43474;46.510;6.686;2022-08-24T00:59:45;3.67;;;3.28;;
57643;SDS011;43474;46.510;6.686;2022-08-24T01:02:19;3.67;;;3.35;;
57643;SDS011;43474;46.510;6.686;2022-08-24T01:05:06;4.82;;;3.38;;
57643;SDS011;43474;46.510;6.686;2022-08-24T01:07:33;5.80;;;3.38;;
57643;SDS011;43474;46.510;6.686;2022-08-24T01:10:04;3.55;;;3.22;;
57643;SDS011;43474;46.510;6.686;2022-08-24T01:12:36;3.80;;;3.05;;
57643;SDS011;43474;46.510;6.686;2022-08-24T01:15:04;3.58;;;3.28;;
57643;SDS011;43474;46.510;6.686;2022-08-24T01:17:31;3.65;;;3.10;;
57643;SDS011;43474;46.510;6.686;2022-08-24T01:20:17;4.20;;;3.20;;
57643;SDS011;43474;46.510;6.686;2022-08-24T01:22:54;3.60;;;3.13;;
57643;SDS011;43474;46.510;6.686;2022-08-24T01:25:28;4.97;;;3.20;;
57643;SDS011;43474;46.510;6.686;2022-08-24T01:27:56;3.97;;;3.13;;
57643;SDS011;43474;46.510;6.686;2022-08-24T01:30:25;4.20;;;3.20;;
57643;SDS011;43474;46.510;6.686;2022-08-24T01:32:53;3.92;;;3.30;;
57643;SDS011;43474;46.510;6.686;2022-08-24T01:35:21;4.85;;;3.70;;
57643;SDS011;43474;46.510;6.686;2022-08-24T01:37:47;3.50;;;3.20;;
57643;SDS011;43474;46.510;6.686;2022-08-24T01:40:14;3.75;;;3.40;;
57643;SDS011;43474;46.510;6.686;2022-08-24T01:42:45;4.60;;;3.22;;
57643;SDS011;43474;46.510;6.686;2022-08-24T01:45:12;4.70;;;3.60;;
57643;SDS011;43474;46.510;6.686;2022-08-24T01:47:37;3.25;;;2.95;;
57643;SDS011;43474;46.510;6.686;2022-08-24T01:50:03;3.72;;;3.30;;
57643;SDS011;43474;46.510;6.686;2022-08-24T01:52:29;3.95;;;3.55;;
57643;SDS011;43474;46.510;6.686;2022-08-24T01:54:54;5.75;;;3.60;;
57643;SDS011;43474;46.510;6.686;2022-08-24T01:57:23;4.03;;;3.35;;
57643;SDS011;43474;46.510;6.686;2022-08-24T01:59:49;3.53;;;3.22;;
57643;SDS011;43474;46.510;6.686;2022-08-24T02:02:16;3.80;;;3.35;;
57643;SDS011;43474;46.510;6.686;2022-08-24T02:04:47;5.35;;;3.10;;
57643;SDS011;43474;46.510;6.686;2022-08-24T02:07:12;3.65;;;3.20;;
57643;SDS011;43474;46.510;6.686;2022-08-24T02:09:38;3.45;;;3.15;;
57643;SDS011;43474;46.510;6.686;2022-08-24T02:12:04;3.70;;;3.30;;
57643;SDS011;43474;46.510;6.686;2022-08-24T02:14:30;4.05;;;3.65;;
57643;SDS011;43474;46.510;6.686;2022-08-24T02:16:56;3.90;;;3.38;;
57643;SDS011;43474;46.510;6.686;2022-08-24T02:19:22;4.35;;;3.38;;
57643;SDS011;43474;46.510;6.686;2022-08-24T02:21:49;3.80;;;3.40;;
57643;SDS011;43474;46.510;6.686;2022-08-24T02:24:15;4.95;;;3.22;;
57643;SDS011;43474;46.510;6.686;2022-08-24T02:26:41;5.18;;;3.45;;
57643;SDS011;43474;46.510;6.686;2022-08-24T02:29:06;3.90;;;3.17;;
57643;SDS011;43474;46.510;6.686;2022-08-24T02:31:32;3.70;;;3.40;;
57643;SDS011;43474;46.510;6.686;2022-08-24T02:33:58;3.47;;;3.17;;
57643;SDS011;43474;46.510;6.686;2022-08-24T02:36:24;4.45;;;3.20;;
57643;SDS011;43474;46.510;6.686;2022-08-24T02:38:50;3.53;;;3.22;;
57643;SDS011;43474;46.510;6.686;2022-08-24T02:41:16;5.00;;;3.30;;
57643;SDS011;43474;46.510;6.686;2022-08-24T02:43:42;3.65;;;3.33;;
57643;SDS011;43474;46.510;6.686;2022-08-24T02:46:07;6.68;;;3.03;;
57643;SDS011;43474;46.510;6.686;2022-08-24T02:48:41;3.85;;;2.97;;
57643;SDS011;43474;46.510;6.686;2022-08-24T02:51:06;4.45;;;3.25;;
57643;SDS011;43474;46.510;6.686;2022-08-24T02:53:32;4.53;;;3.58;;
57643;SDS011;43474;46.510;6.686;2022-08-24T02:55:58;3.45;;;2.97;;
57643;SDS011;43474;46.510;6.686;2022-08-24T02:58:23;5.68;;;3.40;;
57643;SDS011;43474;46.510;6.686;2022-08-24T03:00:49;5.28;;;3.58;;
57643;SDS011;43474;46.510;6.686;2022-08-24T03:03:14;5.00;;;3.67;;
57643;SDS011;43474;46.510;6.686;2022-08-24T03:05:40;5.82;;;3.60;;
57643;SDS011;43474;46.510;6.686;2022-08-24T03:08:06;4.88;;;3.15;;
57643;SDS011;43474;46.510;6.686;2022-08-24T03:10:31;5.00;;;3.45;;
57643;SDS011;43474;46.510;6.686;2022-08-24T03:12:56;3.25;;;2.97;;
57643;SDS011;43474;46.510;6.686;2022-08-24T03:15:25;6.45;;;3.42;;
57643;SDS011;43474;46.510;6.686;2022-08-24T03:17:51;4.10;;;3.50;;
57643;SDS011;43474;46.510;6.686;2022-08-24T03:20:17;4.05;;;3.60;;
57643;SDS011;43474;46.510;6.686;2022-08-24T03:22:45;4.25;;;3.33;;
57643;SDS011;43474;46.510;6.686;2022-08-24T03:25:11;4.88;;;3.30;;
57643;SDS011;43474;46.510;6.686;2022-08-24T03:27:38;3.85;;;3.47;;
57643;SDS011;43474;46.510;6.686;2022-08-24T03:30:04;3.80;;;3.40;;
57643;SDS011;43474;46.510;6.686;2022-08-24T03:32:31;3.78;;;3.42;;
57643;SDS011;43474;46.510;6.686;2022-08-24T03:34:57;4.70;;;3.45;;
57643;SDS011;43474;46.510;6.686;2022-08-24T03:37:23;3.58;;;3.28;;
57643;SDS011;43474;46.510;6.686;2022-08-24T03:39:48;4.68;;;3.45;;
57643;SDS011;43474;46.510;6.686;2022-08-24T03:42:15;5.70;;;3.47;;
57643;SDS011;43474;46.510;6.686;2022-08-24T03:44:41;5.65;;;4.05;;
57643;SDS011;43474;46.510;6.686;2022-08-24T03:47:06;7.03;;;3.60;;
57643;SDS011;43474;46.510;6.686;2022-08-24T03:49:35;6.47;;;3.53;;
57643;SDS011;43474;46.510;6.686;2022-08-24T03:52:02;5.88;;;3.75;;
57643;SDS011;43474;46.510;6.686;2022-08-24T03:54:28;5.35;;;3.63;;
57643;SDS011;43474;46.510;6.686;2022-08-24T03:56:55;5.22;;;3.78;;
57643;SDS011;43474;46.510;6.686;2022-08-24T03:59:21;7.72;;;3.70;;
57643;SDS011;43474;46.510;6.686;2022-08-24T04:01:46;4.95;;;3.70;;
57643;SDS011;43474;46.510;6.686;2022-08-24T04:04:12;3.95;;;3.55;;
57643;SDS011;43474;46.510;6.686;2022-08-24T04:06:37;3.95;;;3.53;;
57643;SDS011;43474;46.510;6.686;2022-08-24T04:09:04;6.57;;;3.85;;
57643;SDS011;43474;46.510;6.686;2022-08-24T04:11:32;5.28;;;3.58;;
57643;SDS011;43474;46.510;6.686;2022-08-24T04:13:58;5.55;;;3.50;;
57643;SDS011;43474;46.510;6.686;2022-08-24T04:16:24;4.05;;;3.65;;
57643;SDS011;43474;46.510;6.686;2022-08-24T04:18:52;6.20;;;4.28;;
57643;SDS011;43474;46.510;6.686;2022-08-24T04:21:25;3.80;;;3.40;;
57643;SDS011;43474;46.510;6.686;2022-08-24T04:23:53;4.43;;;3.80;;
57643;SDS011;43474;46.510;6.686;2022-08-24T04:26:20;6.47;;;3.90;;
57643;SDS011;43474;46.510;6.686;2022-08-24T04:28:47;5.72;;;4.30;;
57643;SDS011;43474;46.510;6.686;2022-08-24T04:31:13;6.00;;;4.40;;
57643;SDS011;43474;46.510;6.686;2022-08-24T04:33:39;5.00;;;4.15;;
57643;SDS011;43474;46.510;6.686;2022-08-24T04:36:06;5.00;;;4.00;;
57643;SDS011;43474;46.510;6.686;2022-08-24T04:38:34;6.20;;;4.38;;
57643;SDS011;43474;46.510;6.686;2022-08-24T04:41:03;4.85;;;4.40;;
57643;SDS011;43474;46.510;6.686;2022-08-24T04:43:30;4.80;;;4.13;;
57643;SDS011;43474;46.510;6.686;2022-08-24T04:45:56;4.25;;;3.85;;
57643;SDS011;43474;46.510;6.686;2022-08-24T04:48:22;4.10;;;3.70;;
57643;SDS011;43474;46.510;6.686;2022-08-24T04:50:47;5.97;;;4.50;;
57643;SDS011;43474;46.510;6.686;2022-08-24T04:53:13;3.97;;;3.58;;
57643;SDS011;43474;46.510;6.686;2022-08-24T04:55:44;5.63;;;4.22;;
57643;SDS011;43474;46.510;6.686;2022-08-24T05:00:38;5.93;;;4.18;;
57643;SDS011;43474;46.510;6.686;2022-08-24T05:03:04;4.55;;;4.13;;
57643;SDS011;43474;46.510;6.686;2022-08-24T05:05:30;6.43;;;4.47;;
57643;SDS011;43474;46.510;6.686;2022-08-24T05:07:55;4.80;;;3.97;;
57643;SDS011;43474;46.510;6.686;2022-08-24T05:10:21;4.35;;;3.95;;
57643;SDS011;43474;46.510;6.686;2022-08-24T05:12:47;5.72;;;4.13;;
57643;SDS011;43474;46.510;6.686;2022-08-24T05:15:13;5.15;;;4.70;;
57643;SDS011;43474;46.510;6.686;2022-08-24T05:17:38;5.65;;;4.18;;
57643;SDS011;43474;46.510;6.686;2022-08-24T05:20:06;4.70;;;4.30;;
57643;SDS011;43474;46.510;6.686;2022-08-24T05:22:33;4.32;;;3.88;;
57643;SDS011;43474;46.510;6.686;2022-08-24T05:24:59;5.72;;;4.28;;
57643;SDS011;43474;46.510;6.686;2022-08-24T05:27:25;7.93;;;4.05;;
57643;SDS011;43474;46.510;6.686;2022-08-24T05:29:54;5.55;;;4.07;;
57643;SDS011;43474;46.510;6.686;2022-08-24T05:32:19;6.22;;;3.90;;
57643;SDS011;43474;46.510;6.686;2022-08-24T05:34:45;6.00;;;4.32;;
57643;SDS011;43474;46.510;6.686;2022-08-24T05:37:11;6.82;;;4.15;;
57643;SDS011;43474;46.510;6.686;2022-08-24T05:39:36;9.07;;;4.55;;
57643;SDS011;43474;46.510;6.686;2022-08-24T05:42:02;4.82;;;4.32;;
57643;SDS011;43474;46.510;6.686;2022-08-24T05:44:28;5.38;;;4.47;;
57643;SDS011;43474;46.510;6.686;2022-08-24T05:46:55;6.07;;;4.35;;
57643;SDS011;43474;46.510;6.686;2022-08-24T05:49:25;8.75;;;4.70;;
57643;SDS011;43474;46.510;6.686;2022-08-24T05:51:51;7.38;;;5.03;;
57643;SDS011;43474;46.510;6.686;2022-08-24T05:54:18;6.00;;;4.60;;
57643;SDS011;43474;46.510;6.686;2022-08-24T05:56:43;5.20;;;4.70;;
57643;SDS011;43474;46.510;6.686;2022-08-24T05:59:10;5.45;;;4.30;;
57643;SDS011;43474;46.510;6.686;2022-08-24T06:01:36;4.47;;;4.07;;
57643;SDS011;43474;46.510;6.686;2022-08-24T06:04:02;6.13;;;4.68;;
57643;SDS011;43474;46.510;6.686;2022-08-24T06:06:28;4.63;;;4.22;;
57643;SDS011;43474;46.510;6.686;2022-08-24T06:08:56;4.88;;;4.38;;
57643;SDS011;43474;46.510;6.686;2022-08-24T06:11:31;11.88;;;6.07;;
57643;SDS011;43474;46.510;6.686;2022-08-24T06:14:03;8.45;;;4.45;;
57643;SDS011;43474;46.510;6.686;2022-08-24T06:16:32;5.32;;;4.70;;
57643;SDS011;43474;46.510;6.686;2022-08-24T06:18:59;5.18;;;4.18;;
57643;SDS011;43474;46.510;6.686;2022-08-24T06:21:25;5.22;;;3.92;;
57643;SDS011;43474;46.510;6.686;2022-08-24T06:23:52;4.75;;;4.30;;
57643;SDS011;43474;46.510;6.686;2022-08-24T06:26:18;6.45;;;4.75;;
57643;SDS011;43474;46.510;6.686;2022-08-24T06:29:03;4.75;;;3.95;;
57643;SDS011;43474;46.510;6.686;2022-08-24T06:31:30;5.32;;;4.60;;
57643;SDS011;43474;46.510;6.686;2022-08-24T06:33:55;7.53;;;4.00;;
57643;SDS011;43474;46.510;6.686;2022-08-24T06:36:21;4.53;;;4.13;;
57643;SDS011;43474;46.510;6.686;2022-08-24T06:38:47;4.20;;;3.80;;
57643;SDS011;43474;46.510;6.686;2022-08-24T06:41:13;5.47;;;4.10;;
57643;SDS011;43474;46.510;6.686;2022-08-24T06:43:39;5.07;;;3.97;;
57643;SDS011;43474;46.510;6.686;2022-08-24T06:46:05;4.90;;;3.80;;
57643;SDS011;43474;46.510;6.686;2022-08-24T06:48:31;4.65;;;4.15;;
57643;SDS011;43474;46.510;6.686;2022-08-24T06:50:58;5.63;;;3.90;;
57643;SDS011;43474;46.510;6.686;2022-08-24T06:53:24;5.22;;;3.92;;
57643;SDS011;43474;46.510;6.686;2022-08-24T06:55:55;3.90;;;3.50;;
57643;SDS011;43474;46.510;6.686;2022-08-24T06:58:22;3.92;;;3.60;;
57643;SDS011;43474;46.510;6.686;2022-08-24T07:00:50;5.57;;;3.92;;
57643;SDS011;43474;46.510;6.686;2022-08-24T07:03:16;7.13;;;3.83;;
57643;SDS011;43474;46.510;6.686;2022-08-24T07:05:49;5.35;;;3.40;;
57643;SDS011;43474;46.510;6.686;2022-08-24T07:08:19;6.70;;;3.53;;
57643;SDS011;43474;46.510;6.686;2022-08-24T07:10:44;4.28;;;3.47;;
57643;SDS011;43474;46.510;6.686;2022-08-24T07:13:10;5.35;;;3.72;;
57643;SDS011;43474;46.510;6.686;2022-08-24T07:15:36;3.80;;;3.50;;
57643;SDS011;43474;46.510;6.686;2022-08-24T07:18:02;8.90;;;6.43;;
57643;SDS011;43474;46.510;6.686;2022-08-24T07:20:31;4.43;;;3.30;;
57643;SDS011;43474;46.510;6.686;2022-08-24T07:22:56;4.80;;;3.47;;
57643;SDS011;43474;46.510;6.686;2022-08-24T07:25:22;5.22;;;3.80;;
57643;SDS011;43474;46.510;6.686;2022-08-24T07:27:47;7.53;;;3.88;;
57643;SDS011;43474;46.510;6.686;2022-08-24T07:30:13;5.35;;;3.92;;
57643;SDS011;43474;46.510;6.686;2022-08-24T07:32:39;4.65;;;3.85;;
57643;SDS011;43474;46.510;6.686;2022-08-24T07:35:04;5.95;;;3.85;;
57643;SDS011;43474;46.510;6.686;2022-08-24T07:37:31;3.90;;;3.60;;
57643;SDS011;43474;46.510;6.686;2022-08-24T07:39:56;4.30;;;3.50;;
57643;SDS011;43474;46.510;6.686;2022-08-24T07:42:22;4.63;;;3.72;;
57643;SDS011;43474;46.510;6.686;2022-08-24T07:44:49;5.47;;;3.70;;
57643;SDS011;43474;46.510;6.686;2022-08-24T07:47:18;4.82;;;4.32;;
57643;SDS011;43474;46.510;6.686;2022-08-24T07:49:45;4.10;;;3.70;;
57643;SDS011;43474;46.510;6.686;2022-08-24T07:52:11;7.28;;;3.78;;
57643;SDS011;43474;46.510;6.686;2022-08-24T07:54:37;6.18;;;4.10;;
57643;SDS011;43474;46.510;6.686;2022-08-24T07:57:03;5.80;;;3.85;;
57643;SDS011;43474;46.510;6.686;2022-08-24T07:59:31;4.10;;;3.70;;
57643;SDS011;43474;46.510;6.686;2022-08-24T08:01:57;4.00;;;3.60;;
57643;SDS011;43474;46.510;6.686;2022-08-24T08:04:23;4.30;;;3.90;;
57643;SDS011;43474;46.510;6.686;2022-08-24T08:06:50;6.65;;;3.92;;
57643;SDS011;43474;46.510;6.686;2022-08-24T08:09:16;7.13;;;4.18;;
57643;SDS011;43474;46.510;6.686;2022-08-24T08:11:42;5.32;;;4.10;;
57643;SDS011;43474;46.510;6.686;2022-08-24T08:14:08;3.95;;;3.55;;
57643;SDS011;43474;46.510;6.686;2022-08-24T08:16:34;4.95;;;3.70;;
57643;SDS011;43474;46.510;6.686;2022-08-24T08:18:59;3.95;;;3.63;;
57643;SDS011;43474;46.510;6.686;2022-08-24T08:21:25;5.13;;;4.25;;
57643;SDS011;43474;46.510;6.686;2022-08-24T08:24:09;4.97;;;4.10;;
57643;SDS011;43474;46.510;6.686;2022-08-24T08:26:46;3.83;;;3.53;;
57643;SDS011;43474;46.510;6.686;2022-08-24T08:29:15;5.65;;;4.07;;
57643;SDS011;43474;46.510;6.686;2022-08-24T08:31:42;4.35;;;3.95;;
57643;SDS011;43474;46.510;6.686;2022-08-24T08:34:09;4.63;;;3.95;;
57643;SDS011;43474;46.510;6.686;2022-08-24T08:36:37;4.32;;;3.90;;
57643;SDS011;43474;46.510;6.686;2022-08-24T08:39:08;5.07;;;4.22;;
57643;SDS011;43474;46.510;6.686;2022-08-24T08:44:13;4.82;;;4.18;;
57643;SDS011;43474;46.510;6.686;2022-08-24T08:46:53;5.68;;;4.28;;
57643;SDS011;43474;46.510;6.686;2022-08-24T09:12:12;4.03;;;3.63;;
57643;SDS011;43474;46.510;6.686;2022-08-24T09:23:36;8.10;;;3.85;;
57643;SDS011;43474;46.510;6.686;2022-08-24T09:26:08;4.60;;;4.20;;
57643;SDS011;43474;46.510;6.686;2022-08-24T09:37:20;6.45;;;3.92;;
57643;SDS011;43474;46.510;6.686;2022-08-24T09:40:00;6.10;;;4.57;;
57643;SDS011;43474;46.510;6.686;2022-08-24T09:51:42;4.85;;;4.30;;
57643;SDS011;43474;46.510;6.686;2022-08-24T09:57:07;6.80;;;5.00;;
57643;SDS011;43474;46.510;6.686;2022-08-24T10:02:51;6.20;;;4.50;;
57643;SDS011;43474;46.510;6.686;2022-08-24T10:05:23;8.90;;;5.20;;
57643;SDS011;43474;46.510;6.686;2022-08-24T10:08:03;5.75;;;4.82;;
57643;SDS011;43474;46.510;6.686;2022-08-24T10:16:58;8.30;;;4.85;;
57643;SDS011;43474;46.510;6.686;2022-08-24T10:22:25;5.13;;;4.53;;
57643;SDS011;43474;46.510;6.686;2022-08-24T10:25:36;5.63;;;4.75;;
57643;SDS011;43474;46.510;6.686;2022-08-24T10:31:06;5.30;;;4.80;;
57643;SDS011;43474;46.510;6.686;2022-08-24T10:42:25;5.65;;;5.15;;
57643;SDS011;43474;46.510;6.686;2022-08-24T10:48:06;6.00;;;4.70;;
57643;SDS011;43474;46.510;6.686;2022-08-24T10:53:47;6.70;;;5.13;;
57643;SDS011;43474;46.510;6.686;2022-08-24T10:56:19;5.15;;;4.65;;
57643;SDS011;43474;46.510;6.686;2022-08-24T10:58:58;6.82;;;4.82;;
57643;SDS011;43474;46.510;6.686;2022-08-24T11:02:03;5.88;;;4.68;;
57643;SDS011;43474;46.510;6.686;2022-08-24T11:04:34;5.00;;;4.43;;
57643;SDS011;43474;46.510;6.686;2022-08-24T11:07:17;6.78;;;4.88;;
57643;SDS011;43474;46.510;6.686;2022-08-24T11:09:46;6.88;;;4.50;;
57643;SDS011;43474;46.510;6.686;2022-08-24T11:14:53;5.50;;;4.45;;
57643;SDS011;43474;46.510;6.686;2022-08-24T11:17:23;5.30;;;4.57;;
57643;SDS011;43474;46.510;6.686;2022-08-24T11:19:50;5.05;;;4.53;;
57643;SDS011;43474;46.510;6.686;2022-08-24T11:22:23;9.00;;;4.55;;
57643;SDS011;43474;46.510;6.686;2022-08-24T11:27:38;5.88;;;4.28;;
57643;SDS011;43474;46.510;6.686;2022-08-24T11:30:08;6.90;;;4.57;;
57643;SDS011;43474;46.510;6.686;2022-08-24T11:37:56;6.45;;;4.40;;
57643;SDS011;43474;46.510;6.686;2022-08-24T11:40:32;7.25;;;5.00;;
57643;SDS011;43474;46.510;6.686;2022-08-24T11:43:08;6.78;;;4.55;;
57643;SDS011;43474;46.510;6.686;2022-08-24T11:48:41;7.53;;;4.88;;
57643;SDS011;43474;46.510;6.686;2022-08-24T11:51:14;5.43;;;4.28;;
57643;SDS011;43474;46.510;6.686;2022-08-24T11:56:38;4.63;;;3.97;;
57643;SDS011;43474;46.510;6.686;2022-08-24T12:01:58;5.68;;;4.32;;
57643;SDS011;43474;46.510;6.686;2022-08-24T12:13:21;4.45;;;3.97;;
57643;SDS011;43474;46.510;6.686;2022-08-24T12:15:55;6.95;;;4.35;;
57643;SDS011;43474;46.510;6.686;2022-08-24T12:21:24;4.82;;;4.10;;
57643;SDS011;43474;46.510;6.686;2022-08-24T12:23:55;6.60;;;4.17;;
57643;SDS011;43474;46.510;6.686;2022-08-24T12:29:05;5.05;;;4.53;;
57643;SDS011;43474;46.510;6.686;2022-08-24T12:31:40;4.78;;;4.32;;
57643;SDS011;43474;46.510;6.686;2022-08-24T12:39:48;7.40;;;4.40;;
57643;SDS011;43474;46.510;6.686;2022-08-24T12:42:46;5.05;;;4.03;;
57643;SDS011;43474;46.510;6.686;2022-08-24T12:45:16;5.32;;;3.65;;
57643;SDS011;43474;46.510;6.686;2022-08-24T12:53:23;5.57;;;3.85;;
57643;SDS011;43474;46.510;6.686;2022-08-24T12:59:03;5.65;;;4.22;;
57643;SDS011;43474;46.510;6.686;2022-08-24T13:01:43;14.00;;;4.57;;
57643;SDS011;43474;46.510;6.686;2022-08-24T13:04:18;4.53;;;4.10;;
57643;SDS011;43474;46.510;6.686;2022-08-24T13:06:59;4.82;;;4.32;;
57643;SDS011;43474;46.510;6.686;2022-08-24T13:10:15;6.50;;;4.13;;
57643;SDS011;43474;46.510;6.686;2022-08-24T13:17:48;7.35;;;4.18;;
57643;SDS011;43474;46.510;6.686;2022-08-24T13:20:17;4.68;;;4.28;;
57643;SDS011;43474;46.510;6.686;2022-08-24T13:22:45;5.18;;;4.35;;
57643;SDS011;43474;46.510;6.686;2022-08-24T13:39:11;4.68;;;3.78;;
57643;SDS011;43474;46.510;6.686;2022-08-24T13:51:04;3.95;;;3.55;;
57643;SDS011;43474;46.510;6.686;2022-08-24T13:53:48;6.40;;;3.63;;
57643;SDS011;43474;46.510;6.686;2022-08-24T13:56:30;4.55;;;3.75;;
57643;SDS011;43474;46.510;6.686;2022-08-24T14:02:17;4.47;;;3.70;;
57643;SDS011;43474;46.510;6.686;2022-08-24T14:10:32;4.28;;;3.78;;
57643;SDS011;43474;46.510;6.686;2022-08-24T14:16:31;4.70;;;3.80;;
57643;SDS011;43474;46.510;6.686;2022-08-24T14:25:11;5.88;;;3.72;;
57643;SDS011;43474;46.510;6.686;2022-08-24T14:28:20;4.85;;;3.78;;
57643;SDS011;43474;46.510;6.686;2022-08-24T14:30:48;7.18;;;4.00;;
57643;SDS011;43474;46.510;6.686;2022-08-24T14:36:40;3.95;;;3.28;;
57643;SDS011;43474;46.510;6.686;2022-08-24T14:39:20;4.88;;;3.53;;
57643;SDS011;43474;46.510;6.686;2022-08-24T14:41:59;4.00;;;3.70;;
57643;SDS011;43474;46.510;6.686;2022-08-24T14:44:44;4.40;;;3.45;;
57643;SDS011;43474;46.510;6.686;2022-08-24T14:47:15;4.75;;;3.50;;
57643;SDS011;43474;46.510;6.686;2022-08-24T14:50:08;4.15;;;3.40;;
57643;SDS011;43474;46.510;6.686;2022-08-24T14:52:49;4.20;;;3.70;;
57643;SDS011;43474;46.510;6.686;2022-08-24T14:58:03;3.92;;;3.50;;
57643;SDS011;43474;46.510;6.686;2022-08-24T15:00:50;4.55;;;3.15;;
57643;SDS011;43474;46.510;6.686;2022-08-24T15:03:33;4.60;;;3.70;;
57643;SDS011;43474;46.510;6.686;2022-08-24T15:09:08;5.30;;;3.58;;
57643;SDS011;43474;46.510;6.686;2022-08-24T15:11:47;5.03;;;3.50;;
57643;SDS011;43474;46.510;6.686;2022-08-24T15:17:01;4.07;;;3.47;;
57643;SDS011;43474;46.510;6.686;2022-08-24T15:28:12;4.75;;;3.78;;
57643;SDS011;43474;46.510;6.686;2022-08-24T15:33:32;4.90;;;3.88;;
57643;SDS011;43474;46.510;6.686;2022-08-24T15:36:11;5.43;;;3.75;;
57643;SDS011;43474;46.510;6.686;2022-08-24T15:38:40;4.60;;;3.75;;
57643;SDS011;43474;46.510;6.686;2022-08-24T15:41:11;4.22;;;3.55;;
57643;SDS011;43474;46.510;6.686;2022-08-24T15:44:00;7.93;;;3.97;;
57643;SDS011;43474;46.510;6.686;2022-08-24T15:46:25;5.63;;;3.33;;
57643;SDS011;43474;46.510;6.686;2022-08-24T15:49:02;5.28;;;3.55;;
57643;SDS011;43474;46.510;6.686;2022-08-24T15:54:13;4.97;;;3.75;;
57643;SDS011;43474;46.510;6.686;2022-08-24T15:57:01;6.60;;;4.03;;
57643;SDS011;43474;46.510;6.686;2022-08-24T16:04:51;6.95;;;3.70;;
57643;SDS011;43474;46.510;6.686;2022-08-24T16:07:30;9.27;;;4.10;;
57643;SDS011;43474;46.510;6.686;2022-08-24T16:10:09;5.15;;;3.80;;
57643;SDS011;43474;46.510;6.686;2022-08-24T16:12:37;4.13;;;3.70;;
57643;SDS011;43474;46.510;6.686;2022-08-24T16:15:08;7.85;;;3.88;;
57643;SDS011;43474;46.510;6.686;2022-08-24T16:17:45;3.88;;;3.50;;
57643;SDS011;43474;46.510;6.686;2022-08-24T16:20:27;4.72;;;3.67;;
57643;SDS011;43474;46.510;6.686;2022-08-24T16:22:57;8.13;;;3.50;;
57643;SDS011;43474;46.510;6.686;2022-08-24T16:25:26;7.50;;;3.47;;
57643;SDS011;43474;46.510;6.686;2022-08-24T16:30:39;6.55;;;3.97;;
57643;SDS011;43474;46.510;6.686;2022-08-24T16:33:04;6.38;;;3.88;;
57643;SDS011;43474;46.510;6.686;2022-08-24T16:35:30;6.18;;;3.47;;
57643;SDS011;43474;46.510;6.686;2022-08-24T16:37:57;4.05;;;3.63;;
57643;SDS011;43474;46.510;6.686;2022-08-24T16:40:24;6.60;;;3.55;;
57643;SDS011;43474;46.510;6.686;2022-08-24T16:42:50;4.20;;;3.42;;
57643;SDS011;43474;46.510;6.686;2022-08-24T16:45:20;7.53;;;3.70;;
57643;SDS011;43474;46.510;6.686;2022-08-24T16:47:47;5.22;;;3.72;;
57643;SDS011;43474;46.510;6.686;2022-08-24T16:50:14;5.10;;;3.70;;
57643;SDS011;43474;46.510;6.686;2022-08-24T16:52:41;5.45;;;3.65;;
57643;SDS011;43474;46.510;6.686;2022-08-24T16:55:07;4.20;;;3.70;;
57643;SDS011;43474;46.510;6.686;2022-08-24T16:57:33;4.00;;;3.63;;
57643;SDS011;43474;46.510;6.686;2022-08-24T17:00:04;5.10;;;3.47;;
57643;SDS011;43474;46.510;6.686;2022-08-24T17:02:32;5.93;;;3.40;;
57643;SDS011;43474;46.510;6.686;2022-08-24T17:04:58;6.40;;;3.50;;
57643;SDS011;43474;46.510;6.686;2022-08-24T17:07:24;4.82;;;3.42;;
57643;SDS011;43474;46.510;6.686;2022-08-24T17:09:52;5.85;;;3.80;;
57643;SDS011;43474;46.510;6.686;2022-08-24T17:12:19;4.25;;;3.30;;
57643;SDS011;43474;46.510;6.686;2022-08-24T17:14:45;4.85;;;3.40;;
57643;SDS011;43474;46.510;6.686;2022-08-24T17:17:11;6.00;;;3.53;;
57643;SDS011;43474;46.510;6.686;2022-08-24T17:19:39;6.25;;;3.50;;
57643;SDS011;43474;46.510;6.686;2022-08-24T17:22:05;6.43;;;4.43;;
57643;SDS011;43474;46.510;6.686;2022-08-24T17:24:32;6.30;;;3.45;;
57643;SDS011;43474;46.510;6.686;2022-08-24T17:26:58;8.80;;;3.97;;
57643;SDS011;43474;46.510;6.686;2022-08-24T17:29:25;4.38;;;3.78;;
57643;SDS011;43474;46.510;6.686;2022-08-24T17:31:51;7.50;;;3.95;;
57643;SDS011;43474;46.510;6.686;2022-08-24T17:34:17;6.50;;;4.45;;
57643;SDS011;43474;46.510;6.686;2022-08-24T17:36:50;7.43;;;4.50;;
57643;SDS011;43474;46.510;6.686;2022-08-24T17:39:19;9.90;;;4.00;;
57643;SDS011;43474;46.510;6.686;2022-08-24T17:41:48;7.05;;;3.78;;
57643;SDS011;43474;46.510;6.686;2022-08-24T17:44:17;4.70;;;3.40;;
57643;SDS011;43474;46.510;6.686;2022-08-24T17:46:48;7.85;;;4.18;;
57643;SDS011;43474;46.510;6.686;2022-08-24T17:49:14;7.40;;;3.95;;
57643;SDS011;43474;46.510;6.686;2022-08-24T17:51:41;4.90;;;2.60;;
57643;SDS011;43474;46.510;6.686;2022-08-24T17:54:07;4.03;;;2.80;;
57643;SDS011;43474;46.510;6.686;2022-08-24T17:56:32;2.95;;;2.70;;
57643;SDS011;43474;46.510;6.686;2022-08-24T17:59:08;6.22;;;2.88;;
57643;SDS011;43474;46.510;6.686;2022-08-24T18:01:53;4.25;;;3.47;;
57643;SDS011;43474;46.510;6.686;2022-08-24T18:04:21;4.63;;;3.80;;
57643;SDS011;43474;46.510;6.686;2022-08-24T18:06:50;3.63;;;3.03;;
57643;SDS011;43474;46.510;6.686;2022-08-24T18:09:26;2.53;;;2.30;;
57643;SDS011;43474;46.510;6.686;2022-08-24T18:11:58;2.60;;;2.35;;
57643;SDS011;43474;46.510;6.686;2022-08-24T18:14:28;2.75;;;2.38;;
57643;SDS011;43474;46.510;6.686;2022-08-24T18:16:54;2.80;;;2.40;;
57643;SDS011;43474;46.510;6.686;2022-08-24T18:19:22;2.50;;;2.30;;
57643;SDS011;43474;46.510;6.686;2022-08-24T18:21:49;3.60;;;2.33;;
57643;SDS011;43474;46.510;6.686;2022-08-24T18:24:15;5.30;;;2.40;;
57643;SDS011;43474;46.510;6.686;2022-08-24T18:26:41;4.53;;;2.45;;
57643;SDS011;43474;46.510;6.686;2022-08-24T18:29:10;2.53;;;2.10;;
57643;SDS011;43474;46.510;6.686;2022-08-24T18:31:39;3.42;;;2.30;;
57643;SDS011;43474;46.510;6.686;2022-08-24T18:34:05;3.92;;;2.38;;
57643;SDS011;43474;46.510;6.686;2022-08-24T18:36:32;4.53;;;2.10;;
57643;SDS011;43474;46.510;6.686;2022-08-24T18:38:57;2.97;;;2.08;;
57643;SDS011;43474;46.510;6.686;2022-08-24T18:41:24;3.90;;;1.90;;